sensor_id;sensor_type;location;lat;lon;timestamp;temperature;humidity
6018;DHT22;3037;51.068;13.780;2023-05-07T00:01:12;10.70;99.90
6018;DHT22;3037;51.068;13.780;2023-05-07T00:03:38;10.60;99.90
6018;DHT22;3037;51.068;13.780;2023-05-07T00:06:04;10.70;99.90
6018;DHT22;3037;51.068;13.780;2023-05-07T00:08:29;10.70;99.90
6018;DHT22;3037;51.068;13.780;2023-05-07T00:10:55;10.80;99.90
6018;DHT22;3037;51.068;13.780;2023-05-07T00:13:20;10.70;99.90
6018;DHT22;3037;51.068;13.780;2023-05-07T00:15:46;10.70;99.90
6018;DHT22;3037;51.068;13.780;2023-05-07T00:18:11;10.70;99.90
6018;DHT22;3037;51.068;13.780;2023-05-07T00:20:37;10.60;99.90
6018;DHT22;3037;51.068;13.780;2023-05-07T00:23:02;10.50;99.90
6018;DHT22;3037;51.068;13.780;2023-05-07T00:25:28;10.50;99.90
6018;DHT22;3037;51.068;13.780;2023-05-07T00:27:53;10.50;99.90
6018;DHT22;3037;51.068;13.780;2023-05-07T00:30:19;10.50;99.90
6018;DHT22;3037;51.068;13.780;2023-05-07T00:32:44;10.50;99.90
6018;DHT22;3037;51.068;13.780;2023-05-07T00:35:14;10.30;99.90
6018;DHT22;3037;51.068;13.780;2023-05-07T00:37:39;10.40;99.90
6018;DHT22;3037;51.068;13.780;2023-05-07T00:40:05;10.30;99.90
6018;DHT22;3037;51.068;13.780;2023-05-07T00:42:32;10.20;99.90
6018;DHT22;3037;51.068;13.780;2023-05-07T00:44:58;10.30;99.90
6018;DHT22;3037;51.068;13.780;2023-05-07T00:47:25;10.40;99.90
6018;DHT22;3037;51.068;13.780;2023-05-07T00:49:51;10.50;99.90
6018;DHT22;3037;51.068;13.780;2023-05-07T00:52:17;10.40;99.90
6018;DHT22;3037;51.068;13.780;2023-05-07T00:54:43;10.40;99.90
6018;DHT22;3037;51.068;13.780;2023-05-07T00:57:10;10.30;99.90
6018;DHT22;3037;51.068;13.780;2023-05-07T00:59:36;10.30;99.90
6018;DHT22;3037;51.068;13.780;2023-05-07T01:02:02;10.30;99.90
6018;DHT22;3037;51.068;13.780;2023-05-07T01:04:28;10.40;99.90
6018;DHT22;3037;51.068;13.780;2023-05-07T01:06:55;10.50;99.90
6018;DHT22;3037;51.068;13.780;2023-05-07T01:09:22;10.40;99.90
6018;DHT22;3037;51.068;13.780;2023-05-07T01:11:49;10.40;99.90
6018;DHT22;3037;51.068;13.780;2023-05-07T01:14:16;10.30;99.90
6018;DHT22;3037;51.068;13.780;2023-05-07T01:16:41;10.30;99.90
6018;DHT22;3037;51.068;13.780;2023-05-07T01:19:08;10.30;99.90
6018;DHT22;3037;51.068;13.780;2023-05-07T01:21:36;10.20;99.90
6018;DHT22;3037;51.068;13.780;2023-05-07T01:24:02;10.20;99.90
6018;DHT22;3037;51.068;13.780;2023-05-07T01:26:29;10.20;99.90
6018;DHT22;3037;51.068;13.780;2023-05-07T01:28:55;10.20;99.90
6018;DHT22;3037;51.068;13.780;2023-05-07T01:31:20;10.20;99.90
6018;DHT22;3037;51.068;13.780;2023-05-07T01:33:48;10.20;99.90
6018;DHT22;3037;51.068;13.780;2023-05-07T01:36:15;10.40;99.90
6018;DHT22;3037;51.068;13.780;2023-05-07T01:38:43;10.40;99.90
6018;DHT22;3037;51.068;13.780;2023-05-07T01:41:08;10.40;99.90
6018;DHT22;3037;51.068;13.780;2023-05-07T01:43:34;10.40;99.90
6018;DHT22;3037;51.068;13.780;2023-05-07T01:46:01;10.50;99.90
6018;DHT22;3037;51.068;13.780;2023-05-07T01:48:26;10.30;99.90
6018;DHT22;3037;51.068;13.780;2023-05-07T01:50:52;10.30;99.90
6018;DHT22;3037;51.068;13.780;2023-05-07T01:53:18;10.40;99.90
6018;DHT22;3037;51.068;13.780;2023-05-07T01:55:43;10.30;99.90
6018;DHT22;3037;51.068;13.780;2023-05-07T01:58:09;10.40;99.90
6018;DHT22;3037;51.068;13.780;2023-05-07T02:00:34;10.40;99.90
6018;DHT22;3037;51.068;13.780;2023-05-07T02:03:00;10.20;99.90
6018;DHT22;3037;51.068;13.780;2023-05-07T02:05:25;10.20;99.90
6018;DHT22;3037;51.068;13.780;2023-05-07T02:07:51;10.30;99.90
6018;DHT22;3037;51.068;13.780;2023-05-07T02:10:16;10.50;99.90
6018;DHT22;3037;51.068;13.780;2023-05-07T02:12:42;10.30;99.90
6018;DHT22;3037;51.068;13.780;2023-05-07T02:15:08;10.30;99.90
6018;DHT22;3037;51.068;13.780;2023-05-07T02:17:33;10.40;99.90
6018;DHT22;3037;51.068;13.780;2023-05-07T02:19:59;10.30;99.90
6018;DHT22;3037;51.068;13.780;2023-05-07T02:22:25;10.30;99.90
6018;DHT22;3037;51.068;13.780;2023-05-07T02:24:51;10.30;99.90
6018;DHT22;3037;51.068;13.780;2023-05-07T02:27:16;10.30;99.90
6018;DHT22;3037;51.068;13.780;2023-05-07T02:29:42;10.40;99.90
6018;DHT22;3037;51.068;13.780;2023-05-07T02:32:07;10.30;99.90
6018;DHT22;3037;51.068;13.780;2023-05-07T02:34:33;10.20;99.90
6018;DHT22;3037;51.068;13.780;2023-05-07T02:36:58;10.20;99.90
6018;DHT22;3037;51.068;13.780;2023-05-07T02:39:24;10.30;99.90
6018;DHT22;3037;51.068;13.780;2023-05-07T02:41:50;10.30;99.90
6018;DHT22;3037;51.068;13.780;2023-05-07T02:44:15;10.00;99.90
6018;DHT22;3037;51.068;13.780;2023-05-07T02:46:40;10.00;99.90
6018;DHT22;3037;51.068;13.780;2023-05-07T02:49:06;10.00;99.90
6018;DHT22;3037;51.068;13.780;2023-05-07T02:51:32;10.00;99.90
6018;DHT22;3037;51.068;13.780;2023-05-07T02:53:57;10.00;99.90
6018;DHT22;3037;51.068;13.780;2023-05-07T02:56:25;10.00;99.90
6018;DHT22;3037;51.068;13.780;2023-05-07T02:58:50;9.90;99.90
6018;DHT22;3037;51.068;13.780;2023-05-07T03:01:16;9.80;99.90
6018;DHT22;3037;51.068;13.780;2023-05-07T03:03:41;10.10;99.90
6018;DHT22;3037;51.068;13.780;2023-05-07T03:06:07;10.00;99.90
6018;DHT22;3037;51.068;13.780;2023-05-07T03:08:33;10.10;99.90
6018;DHT22;3037;51.068;13.780;2023-05-07T03:10:58;10.10;99.90
6018;DHT22;3037;51.068;13.780;2023-05-07T03:13:24;10.00;99.90
6018;DHT22;3037;51.068;13.780;2023-05-07T03:15:49;10.10;99.90
6018;DHT22;3037;51.068;13.780;2023-05-07T03:18:15;10.10;99.90
6018;DHT22;3037;51.068;13.780;2023-05-07T03:20:40;10.10;99.90
6018;DHT22;3037;51.068;13.780;2023-05-07T03:23:06;10.10;99.90
6018;DHT22;3037;51.068;13.780;2023-05-07T03:25:32;9.90;99.90
6018;DHT22;3037;51.068;13.780;2023-05-07T03:27:57;10.00;99.90
6018;DHT22;3037;51.068;13.780;2023-05-07T03:30:23;10.20;99.90
6018;DHT22;3037;51.068;13.780;2023-05-07T03:32:49;10.20;99.90
6018;DHT22;3037;51.068;13.780;2023-05-07T03:35:14;10.20;99.90
6018;DHT22;3037;51.068;13.780;2023-05-07T03:37:40;10.10;99.90
6018;DHT22;3037;51.068;13.780;2023-05-07T03:40:06;10.00;99.90
6018;DHT22;3037;51.068;13.780;2023-05-07T03:42:33;9.80;99.90
6018;DHT22;3037;51.068;13.780;2023-05-07T03:44:58;10.00;99.90
6018;DHT22;3037;51.068;13.780;2023-05-07T03:47:24;10.00;99.90
6018;DHT22;3037;51.068;13.780;2023-05-07T03:49:49;10.00;99.90
6018;DHT22;3037;51.068;13.780;2023-05-07T03:52:15;9.70;99.90
6018;DHT22;3037;51.068;13.780;2023-05-07T03:54:41;9.80;99.90
6018;DHT22;3037;51.068;13.780;2023-05-07T03:57:06;9.80;99.90
6018;DHT22;3037;51.068;13.780;2023-05-07T03:59:32;9.90;99.90
6018;DHT22;3037;51.068;13.780;2023-05-07T04:01:58;9.90;99.90
6018;DHT22;3037;51.068;13.780;2023-05-07T04:04:23;9.90;99.90
6018;DHT22;3037;51.068;13.780;2023-05-07T04:06:49;10.00;99.90
6018;DHT22;3037;51.068;13.780;2023-05-07T04:09:14;10.20;99.90
6018;DHT22;3037;51.068;13.780;2023-05-07T04:11:40;10.10;99.90
6018;DHT22;3037;51.068;13.780;2023-05-07T04:14:06;10.10;99.90
6018;DHT22;3037;51.068;13.780;2023-05-07T04:16:31;10.10;99.90
6018;DHT22;3037;51.068;13.780;2023-05-07T04:18:57;10.00;99.90
6018;DHT22;3037;51.068;13.780;2023-05-07T04:21:22;10.00;99.90
6018;DHT22;3037;51.068;13.780;2023-05-07T04:23:48;10.10;99.90
6018;DHT22;3037;51.068;13.780;2023-05-07T04:26:15;10.20;99.90
6018;DHT22;3037;51.068;13.780;2023-05-07T04:28:41;10.00;99.90
6018;DHT22;3037;51.068;13.780;2023-05-07T04:31:07;10.00;99.90
6018;DHT22;3037;51.068;13.780;2023-05-07T04:33:33;10.10;99.90
6018;DHT22;3037;51.068;13.780;2023-05-07T04:36:01;10.30;99.90
6018;DHT22;3037;51.068;13.780;2023-05-07T04:38:29;10.50;99.90
6018;DHT22;3037;51.068;13.780;2023-05-07T04:40:55;10.40;99.90
6018;DHT22;3037;51.068;13.780;2023-05-07T04:43:22;10.60;99.90
6018;DHT22;3037;51.068;13.780;2023-05-07T04:45:49;10.50;99.90
6018;DHT22;3037;51.068;13.780;2023-05-07T04:48:15;10.50;99.90
6018;DHT22;3037;51.068;13.780;2023-05-07T04:50:40;10.60;99.90
6018;DHT22;3037;51.068;13.780;2023-05-07T04:53:06;10.60;99.90
6018;DHT22;3037;51.068;13.780;2023-05-07T04:55:32;10.70;99.90
6018;DHT22;3037;51.068;13.780;2023-05-07T04:57:57;10.70;99.90
6018;DHT22;3037;51.068;13.780;2023-05-07T05:00:23;10.60;99.90
6018;DHT22;3037;51.068;13.780;2023-05-07T05:02:49;10.60;99.90
6018;DHT22;3037;51.068;13.780;2023-05-07T05:05:14;10.80;99.90
6018;DHT22;3037;51.068;13.780;2023-05-07T05:07:40;10.80;99.90
6018;DHT22;3037;51.068;13.780;2023-05-07T05:10:06;10.60;99.90
6018;DHT22;3037;51.068;13.780;2023-05-07T05:12:31;10.60;99.90
6018;DHT22;3037;51.068;13.780;2023-05-07T05:14:57;10.60;99.90
6018;DHT22;3037;51.068;13.780;2023-05-07T05:17:22;10.90;99.90
6018;DHT22;3037;51.068;13.780;2023-05-07T05:19:48;10.60;99.90
6018;DHT22;3037;51.068;13.780;2023-05-07T05:22:13;10.60;99.90
6018;DHT22;3037;51.068;13.780;2023-05-07T05:24:39;10.80;99.90
6018;DHT22;3037;51.068;13.780;2023-05-07T05:27:05;10.80;99.90
6018;DHT22;3037;51.068;13.780;2023-05-07T05:29:30;10.70;99.90
6018;DHT22;3037;51.068;13.780;2023-05-07T05:31:57;10.80;99.90
6018;DHT22;3037;51.068;13.780;2023-05-07T05:34:22;10.70;99.90
6018;DHT22;3037;51.068;13.780;2023-05-07T05:36:48;10.80;99.90
6018;DHT22;3037;51.068;13.780;2023-05-07T05:39:13;11.10;99.90
6018;DHT22;3037;51.068;13.780;2023-05-07T05:41:39;11.10;99.90
6018;DHT22;3037;51.068;13.780;2023-05-07T05:44:05;11.20;99.90
6018;DHT22;3037;51.068;13.780;2023-05-07T05:46:30;11.30;99.90
6018;DHT22;3037;51.068;13.780;2023-05-07T05:48:56;11.60;99.90
6018;DHT22;3037;51.068;13.780;2023-05-07T05:51:22;11.60;99.90
6018;DHT22;3037;51.068;13.780;2023-05-07T05:53:48;11.70;99.90
6018;DHT22;3037;51.068;13.780;2023-05-07T05:56:14;12.20;99.90
6018;DHT22;3037;51.068;13.780;2023-05-07T05:58:40;12.70;99.90
6018;DHT22;3037;51.068;13.780;2023-05-07T06:01:06;12.50;99.90
6018;DHT22;3037;51.068;13.780;2023-05-07T06:03:31;12.40;99.90
6018;DHT22;3037;51.068;13.780;2023-05-07T06:06:00;12.40;99.90
6018;DHT22;3037;51.068;13.780;2023-05-07T06:08:28;12.40;99.90
6018;DHT22;3037;51.068;13.780;2023-05-07T06:10:54;11.90;99.90
6018;DHT22;3037;51.068;13.780;2023-05-07T06:13:19;11.70;99.90
6018;DHT22;3037;51.068;13.780;2023-05-07T06:15:45;11.70;99.90
6018;DHT22;3037;51.068;13.780;2023-05-07T06:18:10;11.90;99.90
6018;DHT22;3037;51.068;13.780;2023-05-07T06:20:36;12.00;99.90
6018;DHT22;3037;51.068;13.780;2023-05-07T06:23:01;11.70;99.90
6018;DHT22;3037;51.068;13.780;2023-05-07T06:25:27;11.60;99.90
6018;DHT22;3037;51.068;13.780;2023-05-07T06:27:53;11.60;99.90
6018;DHT22;3037;51.068;13.780;2023-05-07T06:30:18;11.20;99.90
6018;DHT22;3037;51.068;13.780;2023-05-07T06:32:44;11.50;99.90
6018;DHT22;3037;51.068;13.780;2023-05-07T06:35:09;11.10;99.90
6018;DHT22;3037;51.068;13.780;2023-05-07T06:37:35;10.90;99.90
6018;DHT22;3037;51.068;13.780;2023-05-07T06:40:04;10.90;99.90
6018;DHT22;3037;51.068;13.780;2023-05-07T06:42:30;10.70;99.90
6018;DHT22;3037;51.068;13.780;2023-05-07T06:44:55;10.60;99.90
6018;DHT22;3037;51.068;13.780;2023-05-07T06:47:21;10.90;99.90
6018;DHT22;3037;51.068;13.780;2023-05-07T06:49:46;10.80;99.90
6018;DHT22;3037;51.068;13.780;2023-05-07T06:52:12;10.60;99.90
6018;DHT22;3037;51.068;13.780;2023-05-07T06:54:37;10.70;99.90
6018;DHT22;3037;51.068;13.780;2023-05-07T06:57:03;10.80;99.90
6018;DHT22;3037;51.068;13.780;2023-05-07T06:59:28;11.20;99.90
6018;DHT22;3037;51.068;13.780;2023-05-07T07:01:54;11.10;99.90
6018;DHT22;3037;51.068;13.780;2023-05-07T07:04:19;11.20;99.90
6018;DHT22;3037;51.068;13.780;2023-05-07T07:06:47;11.00;99.90
6018;DHT22;3037;51.068;13.780;2023-05-07T07:09:13;10.80;99.90
6018;DHT22;3037;51.068;13.780;2023-05-07T07:11:38;10.80;99.90
6018;DHT22;3037;51.068;13.780;2023-05-07T07:14:04;10.60;99.90
6018;DHT22;3037;51.068;13.780;2023-05-07T07:16:30;10.90;99.90
6018;DHT22;3037;51.068;13.780;2023-05-07T07:18:55;11.00;99.90
6018;DHT22;3037;51.068;13.780;2023-05-07T07:21:21;11.30;99.90
6018;DHT22;3037;51.068;13.780;2023-05-07T07:23:46;11.20;99.90
6018;DHT22;3037;51.068;13.780;2023-05-07T07:26:12;11.10;99.90
6018;DHT22;3037;51.068;13.780;2023-05-07T07:28:44;11.30;99.90
6018;DHT22;3037;51.068;13.780;2023-05-07T07:31:10;11.40;99.90
6018;DHT22;3037;51.068;13.780;2023-05-07T07:33:36;11.40;99.90
6018;DHT22;3037;51.068;13.780;2023-05-07T07:36:02;11.40;99.90
6018;DHT22;3037;51.068;13.780;2023-05-07T07:38:27;11.20;99.90
6018;DHT22;3037;51.068;13.780;2023-05-07T07:40:53;11.20;99.90
6018;DHT22;3037;51.068;13.780;2023-05-07T07:43:19;11.20;99.90
6018;DHT22;3037;51.068;13.780;2023-05-07T07:45:44;11.10;99.90
6018;DHT22;3037;51.068;13.780;2023-05-07T07:48:11;10.80;99.90
6018;DHT22;3037;51.068;13.780;2023-05-07T07:50:36;10.90;99.90
6018;DHT22;3037;51.068;13.780;2023-05-07T07:53:02;10.80;99.90
6018;DHT22;3037;51.068;13.780;2023-05-07T07:55:27;10.90;99.90
6018;DHT22;3037;51.068;13.780;2023-05-07T07:57:53;10.90;99.90
6018;DHT22;3037;51.068;13.780;2023-05-07T08:00:19;10.60;99.90
6018;DHT22;3037;51.068;13.780;2023-05-07T08:02:44;10.80;99.90
6018;DHT22;3037;51.068;13.780;2023-05-07T08:05:10;10.90;99.90
6018;DHT22;3037;51.068;13.780;2023-05-07T08:07:35;10.80;99.90
6018;DHT22;3037;51.068;13.780;2023-05-07T08:10:01;10.80;99.90
6018;DHT22;3037;51.068;13.780;2023-05-07T08:12:27;10.90;99.90
6018;DHT22;3037;51.068;13.780;2023-05-07T08:14:53;10.90;99.90
6018;DHT22;3037;51.068;13.780;2023-05-07T08:17:18;11.00;99.90
6018;DHT22;3037;51.068;13.780;2023-05-07T08:19:44;11.00;99.90
6018;DHT22;3037;51.068;13.780;2023-05-07T08:22:10;11.30;99.90
6018;DHT22;3037;51.068;13.780;2023-05-07T08:24:36;11.50;99.90
6018;DHT22;3037;51.068;13.780;2023-05-07T08:27:01;11.40;99.90
6018;DHT22;3037;51.068;13.780;2023-05-07T08:29:27;11.70;99.90
6018;DHT22;3037;51.068;13.780;2023-05-07T08:31:52;11.60;99.90
6018;DHT22;3037;51.068;13.780;2023-05-07T08:34:18;11.80;99.90
6018;DHT22;3037;51.068;13.780;2023-05-07T08:36:44;11.80;99.90
6018;DHT22;3037;51.068;13.780;2023-05-07T08:39:12;11.40;99.90
6018;DHT22;3037;51.068;13.780;2023-05-07T08:41:37;11.50;99.90
6018;DHT22;3037;51.068;13.780;2023-05-07T08:44:03;11.80;99.90
6018;DHT22;3037;51.068;13.780;2023-05-07T08:46:32;12.00;99.90
6018;DHT22;3037;51.068;13.780;2023-05-07T08:48:58;11.80;99.90
6018;DHT22;3037;51.068;13.780;2023-05-07T08:51:23;11.60;99.90
6018;DHT22;3037;51.068;13.780;2023-05-07T08:53:49;11.40;99.90
6018;DHT22;3037;51.068;13.780;2023-05-07T08:56:16;11.50;99.90
6018;DHT22;3037;51.068;13.780;2023-05-07T08:58:44;11.40;99.90
6018;DHT22;3037;51.068;13.780;2023-05-07T09:01:13;11.60;99.90
6018;DHT22;3037;51.068;13.780;2023-05-07T09:03:40;11.70;99.90
6018;DHT22;3037;51.068;13.780;2023-05-07T09:06:06;11.40;99.90
6018;DHT22;3037;51.068;13.780;2023-05-07T09:08:33;11.40;99.90
6018;DHT22;3037;51.068;13.780;2023-05-07T09:10:59;11.50;99.90
6018;DHT22;3037;51.068;13.780;2023-05-07T09:13:25;11.60;99.90
6018;DHT22;3037;51.068;13.780;2023-05-07T09:15:50;11.60;99.90
6018;DHT22;3037;51.068;13.780;2023-05-07T09:18:16;11.60;99.90
6018;DHT22;3037;51.068;13.780;2023-05-07T09:20:41;11.70;99.90
6018;DHT22;3037;51.068;13.780;2023-05-07T09:23:08;11.60;99.90
6018;DHT22;3037;51.068;13.780;2023-05-07T09:25:34;11.60;99.90
6018;DHT22;3037;51.068;13.780;2023-05-07T09:28:01;11.90;99.90
6018;DHT22;3037;51.068;13.780;2023-05-07T09:30:31;11.60;99.90
6018;DHT22;3037;51.068;13.780;2023-05-07T09:32:58;11.70;99.90
6018;DHT22;3037;51.068;13.780;2023-05-07T09:35:25;11.40;99.90
6018;DHT22;3037;51.068;13.780;2023-05-07T09:37:53;11.60;99.90
6018;DHT22;3037;51.068;13.780;2023-05-07T09:40:26;11.90;99.90
6018;DHT22;3037;51.068;13.780;2023-05-07T09:42:53;11.90;99.90
6018;DHT22;3037;51.068;13.780;2023-05-07T09:45:22;11.90;99.90
6018;DHT22;3037;51.068;13.780;2023-05-07T09:47:49;12.10;99.90
6018;DHT22;3037;51.068;13.780;2023-05-07T09:50:19;12.20;99.90
6018;DHT22;3037;51.068;13.780;2023-05-07T09:52:47;11.70;99.90
6018;DHT22;3037;51.068;13.780;2023-05-07T09:55:13;11.60;99.90
6018;DHT22;3037;51.068;13.780;2023-05-07T09:57:40;11.80;99.90
6018;DHT22;3037;51.068;13.780;2023-05-07T10:00:07;11.90;99.90
6018;DHT22;3037;51.068;13.780;2023-05-07T10:02:35;11.80;99.90
6018;DHT22;3037;51.068;13.780;2023-05-07T10:05:02;11.80;99.90
6018;DHT22;3037;51.068;13.780;2023-05-07T10:07:28;12.90;99.90
6018;DHT22;3037;51.068;13.780;2023-05-07T10:09:55;12.50;99.90
6018;DHT22;3037;51.068;13.780;2023-05-07T10:12:21;12.50;99.90
6018;DHT22;3037;51.068;13.780;2023-05-07T10:14:47;12.80;98.20
6018;DHT22;3037;51.068;13.780;2023-05-07T10:17:16;12.70;97.40
6018;DHT22;3037;51.068;13.780;2023-05-07T10:19:43;12.70;98.90
6018;DHT22;3037;51.068;13.780;2023-05-07T10:22:09;12.70;97.00
6018;DHT22;3037;51.068;13.780;2023-05-07T10:24:36;13.10;94.60
6018;DHT22;3037;51.068;13.780;2023-05-07T10:27:07;13.30;94.20
6018;DHT22;3037;51.068;13.780;2023-05-07T10:30:16;13.10;95.50
6018;DHT22;3037;51.068;13.780;2023-05-07T10:32:48;13.10;94.40
6018;DHT22;3037;51.068;13.780;2023-05-07T10:35:29;13.50;93.90
6018;DHT22;3037;51.068;13.780;2023-05-07T10:37:57;13.90;91.90
6018;DHT22;3037;51.068;13.780;2023-05-07T10:40:23;13.60;92.20
6018;DHT22;3037;51.068;13.780;2023-05-07T10:42:57;13.40;91.10
6018;DHT22;3037;51.068;13.780;2023-05-07T10:45:23;13.30;91.90
6018;DHT22;3037;51.068;13.780;2023-05-07T10:50:34;13.50;90.30
6018;DHT22;3037;51.068;13.780;2023-05-07T10:55:48;13.50;86.10
6018;DHT22;3037;51.068;13.780;2023-05-07T10:58:27;13.60;82.90
6018;DHT22;3037;51.068;13.780;2023-05-07T11:00:57;13.90;82.80
6018;DHT22;3037;51.068;13.780;2023-05-07T11:03:24;14.40;77.40
6018;DHT22;3037;51.068;13.780;2023-05-07T11:06:09;14.60;71.40
6018;DHT22;3037;51.068;13.780;2023-05-07T11:08:55;14.90;68.80
6018;DHT22;3037;51.068;13.780;2023-05-07T11:11:44;14.30;69.20
6018;DHT22;3037;51.068;13.780;2023-05-07T11:14:11;14.00;73.60
6018;DHT22;3037;51.068;13.780;2023-05-07T11:16:37;14.20;71.70
6018;DHT22;3037;51.068;13.780;2023-05-07T11:19:03;14.30;73.10
6018;DHT22;3037;51.068;13.780;2023-05-07T11:23:58;14.50;71.30
6018;DHT22;3037;51.068;13.780;2023-05-07T11:26:24;13.80;73.10
6018;DHT22;3037;51.068;13.780;2023-05-07T11:28:51;13.70;77.10
6018;DHT22;3037;51.068;13.780;2023-05-07T11:31:21;14.10;76.10
6018;DHT22;3037;51.068;13.780;2023-05-07T11:33:48;14.20;78.70
6018;DHT22;3037;51.068;13.780;2023-05-07T11:36:14;14.40;73.40
6018;DHT22;3037;51.068;13.780;2023-05-07T11:38:40;14.30;73.20
6018;DHT22;3037;51.068;13.780;2023-05-07T11:41:06;14.00;73.00
6018;DHT22;3037;51.068;13.780;2023-05-07T11:43:33;13.90;75.20
6018;DHT22;3037;51.068;13.780;2023-05-07T11:46:11;13.70;78.40
6018;DHT22;3037;51.068;13.780;2023-05-07T11:48:38;13.90;77.90
6018;DHT22;3037;51.068;13.780;2023-05-07T11:51:05;14.20;76.00
6018;DHT22;3037;51.068;13.780;2023-05-07T11:53:38;14.30;73.80
6018;DHT22;3037;51.068;13.780;2023-05-07T11:56:09;13.80;76.70
6018;DHT22;3037;51.068;13.780;2023-05-07T11:58:34;14.00;76.70
6018;DHT22;3037;51.068;13.780;2023-05-07T12:01:00;14.20;73.00
6018;DHT22;3037;51.068;13.780;2023-05-07T12:03:26;14.40;72.00
6018;DHT22;3037;51.068;13.780;2023-05-07T12:05:51;14.20;77.40
6018;DHT22;3037;51.068;13.780;2023-05-07T12:08:18;14.40;81.50
6018;DHT22;3037;51.068;13.780;2023-05-07T12:10:45;14.50;74.60
6018;DHT22;3037;51.068;13.780;2023-05-07T12:13:23;14.70;73.60
6018;DHT22;3037;51.068;13.780;2023-05-07T12:15:53;14.50;75.50
6018;DHT22;3037;51.068;13.780;2023-05-07T12:18:19;14.90;79.30
6018;DHT22;3037;51.068;13.780;2023-05-07T12:20:45;15.30;69.70
6018;DHT22;3037;51.068;13.780;2023-05-07T12:23:12;15.50;69.10
6018;DHT22;3037;51.068;13.780;2023-05-07T12:25:39;15.20;66.00
6018;DHT22;3037;51.068;13.780;2023-05-07T12:28:05;15.20;66.60
6018;DHT22;3037;51.068;13.780;2023-05-07T12:30:38;15.40;67.40
6018;DHT22;3037;51.068;13.780;2023-05-07T12:33:04;15.00;66.40
6018;DHT22;3037;51.068;13.780;2023-05-07T12:35:30;15.00;70.40
6018;DHT22;3037;51.068;13.780;2023-05-07T12:37:59;15.10;66.90
6018;DHT22;3037;51.068;13.780;2023-05-07T12:40:44;14.80;68.20
6018;DHT22;3037;51.068;13.780;2023-05-07T12:43:21;14.60;67.70
6018;DHT22;3037;51.068;13.780;2023-05-07T12:45:49;14.70;70.10
6018;DHT22;3037;51.068;13.780;2023-05-07T12:48:14;15.60;62.50
6018;DHT22;3037;51.068;13.780;2023-05-07T12:50:40;15.60;59.50
6018;DHT22;3037;51.068;13.780;2023-05-07T12:53:07;15.60;57.00
6018;DHT22;3037;51.068;13.780;2023-05-07T12:55:50;15.90;56.80
6018;DHT22;3037;51.068;13.780;2023-05-07T12:58:21;16.10;52.10
6018;DHT22;3037;51.068;13.780;2023-05-07T13:00:49;16.00;52.90
6018;DHT22;3037;51.068;13.780;2023-05-07T13:05:48;15.70;51.60
6018;DHT22;3037;51.068;13.780;2023-05-07T13:08:26;15.00;56.30
6018;DHT22;3037;51.068;13.780;2023-05-07T13:10:52;15.30;56.50
6018;DHT22;3037;51.068;13.780;2023-05-07T13:13:19;15.10;56.30
6018;DHT22;3037;51.068;13.780;2023-05-07T13:15:45;15.40;53.90
6018;DHT22;3037;51.068;13.780;2023-05-07T13:18:11;16.00;52.80
6018;DHT22;3037;51.068;13.780;2023-05-07T13:20:36;16.20;50.20
6018;DHT22;3037;51.068;13.780;2023-05-07T13:23:02;15.90;50.50
6018;DHT22;3037;51.068;13.780;2023-05-07T13:25:30;16.00;46.30
6018;DHT22;3037;51.068;13.780;2023-05-07T13:27:57;16.00;46.90
6018;DHT22;3037;51.068;13.780;2023-05-07T13:30:22;15.70;45.00
6018;DHT22;3037;51.068;13.780;2023-05-07T13:32:48;15.70;48.60
6018;DHT22;3037;51.068;13.780;2023-05-07T13:35:14;15.80;46.60
6018;DHT22;3037;51.068;13.780;2023-05-07T13:37:39;16.10;41.30
6018;DHT22;3037;51.068;13.780;2023-05-07T13:40:06;16.40;40.90
6018;DHT22;3037;51.068;13.780;2023-05-07T13:42:31;16.20;41.10
6018;DHT22;3037;51.068;13.780;2023-05-07T13:44:57;16.00;40.20
6018;DHT22;3037;51.068;13.780;2023-05-07T13:47:22;15.50;41.40
6018;DHT22;3037;51.068;13.780;2023-05-07T13:49:48;15.60;43.90
6018;DHT22;3037;51.068;13.780;2023-05-07T13:52:16;15.80;41.40
6018;DHT22;3037;51.068;13.780;2023-05-07T13:54:42;15.30;47.10
6018;DHT22;3037;51.068;13.780;2023-05-07T13:57:08;15.90;42.00
6018;DHT22;3037;51.068;13.780;2023-05-07T13:59:33;16.60;35.40
6018;DHT22;3037;51.068;13.780;2023-05-07T14:01:59;17.00;31.60
6018;DHT22;3037;51.068;13.780;2023-05-07T14:04:25;16.50;32.80
6018;DHT22;3037;51.068;13.780;2023-05-07T14:06:51;15.90;35.50
6018;DHT22;3037;51.068;13.780;2023-05-07T14:09:16;15.30;39.10
6018;DHT22;3037;51.068;13.780;2023-05-07T14:11:42;14.90;43.90
6018;DHT22;3037;51.068;13.780;2023-05-07T14:14:07;15.40;46.30
6018;DHT22;3037;51.068;13.780;2023-05-07T14:16:36;15.80;44.60
6018;DHT22;3037;51.068;13.780;2023-05-07T14:19:01;15.00;46.40
6018;DHT22;3037;51.068;13.780;2023-05-07T14:21:27;15.00;46.30
6018;DHT22;3037;51.068;13.780;2023-05-07T14:23:52;14.70;50.90
6018;DHT22;3037;51.068;13.780;2023-05-07T14:26:18;14.80;52.50
6018;DHT22;3037;51.068;13.780;2023-05-07T14:28:44;15.60;49.50
6018;DHT22;3037;51.068;13.780;2023-05-07T14:31:11;16.10;48.50
6018;DHT22;3037;51.068;13.780;2023-05-07T14:33:37;15.60;45.00
6018;DHT22;3037;51.068;13.780;2023-05-07T14:36:03;15.30;44.90
6018;DHT22;3037;51.068;13.780;2023-05-07T14:38:29;15.10;47.10
6018;DHT22;3037;51.068;13.780;2023-05-07T14:40:55;15.20;48.30
6018;DHT22;3037;51.068;13.780;2023-05-07T14:43:21;15.10;48.20
6018;DHT22;3037;51.068;13.780;2023-05-07T14:45:47;15.20;48.40
6018;DHT22;3037;51.068;13.780;2023-05-07T14:48:12;14.70;53.30
6018;DHT22;3037;51.068;13.780;2023-05-07T14:50:41;14.70;54.00
6018;DHT22;3037;51.068;13.780;2023-05-07T14:53:06;14.40;56.90
6018;DHT22;3037;51.068;13.780;2023-05-07T14:55:32;14.80;55.10
6018;DHT22;3037;51.068;13.780;2023-05-07T14:57:57;14.50;56.20
6018;DHT22;3037;51.068;13.780;2023-05-07T15:00:23;14.00;61.90
6018;DHT22;3037;51.068;13.780;2023-05-07T15:02:48;14.50;59.70
6018;DHT22;3037;51.068;13.780;2023-05-07T15:05:14;14.50;58.00
6018;DHT22;3037;51.068;13.780;2023-05-07T15:07:40;14.30;59.40
6018;DHT22;3037;51.068;13.780;2023-05-07T15:10:06;14.30;60.90
6018;DHT22;3037;51.068;13.780;2023-05-07T15:12:31;14.40;60.30
6018;DHT22;3037;51.068;13.780;2023-05-07T15:14:57;14.30;62.00
6018;DHT22;3037;51.068;13.780;2023-05-07T15:17:22;14.00;65.60
6018;DHT22;3037;51.068;13.780;2023-05-07T15:19:48;13.80;69.20
6018;DHT22;3037;51.068;13.780;2023-05-07T15:22:13;14.00;69.20
6018;DHT22;3037;51.068;13.780;2023-05-07T15:24:40;13.90;69.50
6018;DHT22;3037;51.068;13.780;2023-05-07T15:27:06;13.60;71.40
6018;DHT22;3037;51.068;13.780;2023-05-07T15:29:31;13.50;72.20
6018;DHT22;3037;51.068;13.780;2023-05-07T15:31:57;13.50;77.30
6018;DHT22;3037;51.068;13.780;2023-05-07T15:34:22;13.70;73.20
6018;DHT22;3037;51.068;13.780;2023-05-07T15:36:49;13.90;69.50
6018;DHT22;3037;51.068;13.780;2023-05-07T15:39:15;13.80;71.40
6018;DHT22;3037;51.068;13.780;2023-05-07T15:41:40;13.70;73.30
6018;DHT22;3037;51.068;13.780;2023-05-07T15:44:06;13.30;78.80
6018;DHT22;3037;51.068;13.780;2023-05-07T15:46:31;13.20;83.70
6018;DHT22;3037;51.068;13.780;2023-05-07T15:48:57;13.30;86.50
6018;DHT22;3037;51.068;13.780;2023-05-07T15:51:22;13.10;83.70
6018;DHT22;3037;51.068;13.780;2023-05-07T15:53:48;12.80;85.00